Time;durP1;ratioP1;P1;durP2;ratioP2;P2;SDS_P1;SDS_P2;PMS_P1;PMS_P2;Temp;Humidity;BMP_temperature;BMP_pressure;BME280_temperature;BME280_humidity;BME280_pressure;Samples;Min_cycle;Max_cycle;Signal;HPM_P1;HPM_P2
2023/12/28 00:00:34;;;;;;;4.85;1.33;;;;;;;-146.25;100.00;52615.56;2079009;28;20806;-71
2023/12/28 00:01:36;;;;;;;3.83;1.40;;;;;;;-146.25;100.00;52631.78;2078857;28;37980;-70
2023/12/28 00:02:38;;;;;;;4.93;1.42;;;;;;;-146.25;100.00;52585.16;2078778;28;31294;-71
2023/12/28 00:03:41;;;;;;;3.90;1.63;;;;;;;-146.25;100.00;52617.59;2079033;28;33018;-71
2023/12/28 00:04:42;;;;;;;2.90;1.20;;;;;;;-146.25;100.00;52656.13;2084488;28;37873;-71
2023/12/28 00:05:44;;;;;;;4.32;1.73;;;;;;;-146.25;100.00;52645.97;2080310;28;37309;-71
2023/12/28 00:06:48;;;;;;;5.05;1.60;;;;;;;-146.25;100.00;52631.78;2083525;28;36625;-71
2023/12/28 00:07:56;;;;;;;5.55;1.40;;;;;;;-146.25;100.00;52611.50;2088802;28;33837;-70
2023/12/28 00:09:02;;;;;;;2.88;1.17;;;;;;;-146.25;100.00;52648.00;2088921;28;20046;-70
2023/12/28 00:10:09;;;;;;;2.85;1.40;;;;;;;-146.25;100.00;52607.47;2088454;28;34469;-70
2023/12/28 00:11:11;;;;;;;2.88;1.30;;;;;;;-146.25;100.00;52652.06;2082480;28;26383;-71
2023/12/28 00:12:12;;;;;;;2.50;1.42;;;;;;;-146.25;100.00;52627.75;2081405;28;24332;-70
2023/12/28 00:13:14;;;;;;;2.95;1.40;;;;;;;-146.25;100.00;52621.66;2087344;28;23954;-71
2023/12/28 00:14:16;;;;;;;5.00;1.30;;;;;;;-146.25;100.00;52641.94;2074728;28;20172;-70
2023/12/28 00:15:18;;;;;;;3.08;1.10;;;;;;;-146.25;100.00;52674.38;2079514;28;26432;-71
2023/12/28 00:16:20;;;;;;;5.68;1.08;;;;;;;-146.25;100.00;52625.72;2089378;28;30863;-70
2023/12/28 00:17:24;;;;;;;3.78;1.10;;;;;;;-146.25;100.00;52617.59;2082407;28;20183;-71
2023/12/28 00:18:25;;;;;;;4.15;1.13;;;;;;;-146.25;100.00;52629.75;2080458;28;36467;-70
2023/12/28 00:19:27;;;;;;;3.63;0.95;;;;;;;-146.25;100.00;52635.84;2080584;28;36542;-71
2023/12/28 00:20:29;;;;;;;3.97;1.27;;;;;;;-146.25;100.00;52666.25;2081225;28;29799;-70
2023/12/28 00:21:31;;;;;;;3.28;1.10;;;;;;;-146.25;100.00;52658.16;2088964;28;35630;-69
2023/12/28 00:22:32;;;;;;;2.10;1.13;;;;;;;-146.25;100.00;52641.94;2079056;28;38476;-71
2023/12/28 00:23:36;;;;;;;3.03;1.30;;;;;;;-146.25;100.00;52631.78;2072802;28;20904;-70
2023/12/28 00:24:37;;;;;;;2.83;1.23;;;;;;;-146.25;100.00;52672.34;2073224;28;35978;-71
2023/12/28 00:25:41;;;;;;;5.18;1.40;;;;;;;-146.25;100.00;52635.84;2081058;28;20144;-71
2023/12/28 00:26:43;;;;;;;4.13;1.30;;;;;;;-146.25;100.00;52625.72;2086494;28;35263;-71
2023/12/28 00:27:45;;;;;;;3.15;1.23;;;;;;;-146.25;100.00;52692.63;2080585;28;20088;-71
2023/12/28 00:28:48;;;;;;;3.53;1.38;;;;;;;-146.25;100.00;52621.66;2082947;28;32637;-71
2023/12/28 00:29:50;;;;;;;2.67;1.13;;;;;;;-146.25;100.00;52631.78;2080340;28;21371;-71
2023/12/28 00:30:51;;;;;;;2.67;1.33;;;;;;;-146.25;100.00;52658.16;2072144;28;24008;-71
2023/12/28 00:31:53;;;;;;;2.72;1.33;;;;;;;-146.25;100.00;52643.97;2079994;28;25027;-71
2023/12/28 00:32:55;;;;;;;2.05;0.98;;;;;;;-146.25;100.00;52652.06;2089446;28;20053;-70
2023/12/28 00:33:57;;;;;;;2.88;1.20;;;;;;;-146.25;100.00;52601.38;2080204;28;27673;-71
2023/12/28 00:34:59;;;;;;;3.58;1.40;;;;;;;-146.25;100.00;52637.88;2071779;28;30387;-70
2023/12/28 00:36:01;;;;;;;2.10;1.10;;;;;;;-146.25;100.00;52688.56;2064324;28;20043;-70
2023/12/28 00:37:03;;;;;;;3.95;1.40;;;;;;;-146.25;100.00;52627.75;2080687;28;20042;-70
2023/12/28 00:38:05;;;;;;;2.80;1.08;;;;;;;-146.25;100.00;52633.81;2088519;28;20057;-70
2023/12/28 00:39:08;;;;;;;3.05;1.38;;;;;;;-146.25;100.00;52656.13;2081748;28;20153;-71
2023/12/28 00:40:10;;;;;;;2.58;1.10;;;;;;;-146.25;100.00;52656.13;2071824;28;25417;-71
2023/12/28 00:41:12;;;;;;;3.40;1.23;;;;;;;-146.25;100.00;52639.91;2086389;28;30738;-70
2023/12/28 00:42:14;;;;;;;2.10;0.85;;;;;;;-146.25;100.00;52639.91;2088997;28;28608;-71
2023/12/28 00:43:16;;;;;;;3.05;1.30;;;;;;;-146.25;100.00;52615.56;2082577;28;20050;-70
2023/12/28 00:44:17;;;;;;;2.40;1.02;;;;;;;-146.25;100.00;52633.81;2081240;28;20131;-70
2023/12/28 00:45:19;;;;;;;2.38;1.00;;;;;;;-146.25;100.00;52623.69;2078747;28;31990;-70
2023/12/28 00:46:22;;;;;;;3.72;1.20;;;;;;;-146.25;100.00;52623.69;2079836;28;30580;-70
2023/12/28 00:47:24;;;;;;;2.85;1.20;;;;;;;-146.25;100.00;52660.19;2080340;28;26050;-70
2023/12/28 00:48:26;;;;;;;2.53;0.88;;;;;;;-146.25;100.00;52641.94;2080081;28;20887;-71
2023/12/28 00:49:27;;;;;;;1.88;1.13;;;;;;;-146.25;100.00;52688.56;2080709;28;31162;-71
2023/12/28 00:50:31;;;;;;;3.35;1.40;;;;;;;-146.25;100.00;52664.22;2071886;28;31386;-70
2023/12/28 00:51:34;;;;;;;2.45;1.17;;;;;;;-146.25;100.00;52601.38;2080298;28;28130;-70
2023/12/28 00:52:36;;;;;;;2.45;1.00;;;;;;;-146.25;100.00;52623.69;2078562;28;31460;-70
2023/12/28 00:53:37;;;;;;;4.05;1.40;;;;;;;-146.25;100.00;52639.91;2080451;28;20049;-71
2023/12/28 00:54:39;;;;;;;5.32;1.13;;;;;;;-146.25;100.00;52627.75;2079710;28;35134;-71
2023/12/28 00:55:41;;;;;;;3.13;1.48;;;;;;;-146.25;100.00;52650.03;2079953;28;30643;-70
2023/12/28 00:56:43;;;;;;;2.67;1.23;;;;;;;-146.25;100.00;52654.09;2071615;28;24647;-71
2023/12/28 00:57:45;;;;;;;3.95;1.35;;;;;;;-146.25;100.00;52656.13;2075537;28;29940;-70
2023/12/28 00:58:47;;;;;;;5.57;1.27;;;;;;;-146.25;100.00;52672.34;2089262;28;20127;-71
2023/12/28 00:59:49;;;;;;;3.80;1.10;;;;;;;-146.25;100.00;52635.84;2089141;28;22582;-70
2023/12/28 01:00:53;;;;;;;2.33;1.10;;;;;;;-146.25;100.00;52627.75;2086187;28;22026;-71
2023/12/28 01:01:55;;;;;;;3.97;1.10;;;;;;;-146.25;100.00;52676.41;2071769;28;28576;-70
2023/12/28 01:03:02;;;;;;;1.60;0.90;;;;;;;-146.25;100.00;52650.03;2076797;28;20045;-70
2023/12/28 01:04:07;;;;;;;2.15;0.90;;;;;;;-146.25;100.00;52664.22;2088624;28;20034;-71
2023/12/28 01:05:11;;;;;;;1.40;1.00;;;;;;;-146.25;100.00;52662.22;2088393;28;25610;-71
2023/12/28 01:06:13;;;;;;;3.75;1.30;;;;;;;-146.25;100.00;52676.41;2088925;28;28413;-70
2023/12/28 01:07:15;;;;;;;3.35;1.30;;;;;;;-146.25;100.00;52639.91;2088942;28;23272;-71
2023/12/28 01:08:17;;;;;;;4.25;1.17;;;;;;;-146.25;100.00;52668.28;2088938;28;27505;-71
2023/12/28 01:09:20;;;;;;;2.45;0.98;;;;;;;-146.25;100.00;52660.19;2080947;28;20058;-70
2023/12/28 01:10:22;;;;;;;2.25;1.23;;;;;;;-146.25;100.00;52652.06;2079956;28;32912;-70
2023/12/28 01:11:23;;;;;;;3.78;1.00;;;;;;;-146.25;100.00;52654.09;2079647;28;21061;-70
2023/12/28 01:12:26;;;;;;;2.05;0.93;;;;;;;-146.25;100.00;52631.78;2080447;28;20065;-70
2023/12/28 01:13:28;;;;;;;1.90;0.90;;;;;;;-146.25;100.00;52660.19;2071880;28;22725;-71
2023/12/28 01:14:30;;;;;;;1.83;1.10;;;;;;;-146.25;100.00;52627.75;2064230;28;20039;-70
2023/12/28 01:15:32;;;;;;;3.70;1.20;;;;;;;-146.25;100.00;52712.91;2072020;28;20939;-70
2023/12/28 01:16:39;;;;;;;2.90;1.10;;;;;;;-146.25;100.00;52680.47;2083177;28;29111;-70
2023/12/28 01:17:41;;;;;;;4.57;1.05;;;;;;;-146.25;100.00;52645.97;2079748;28;24819;-70
2023/12/28 01:18:43;;;;;;;2.53;0.98;;;;;;;-146.25;100.00;52668.28;2080038;28;32512;-70
2023/12/28 01:19:46;;;;;;;2.13;1.17;;;;;;;-146.25;100.00;52656.13;2080221;28;20045;-71
2023/12/28 01:20:48;;;;;;;4.53;1.70;;;;;;;-146.25;100.00;52611.50;2080161;28;23143;-71
2023/12/28 01:21:50;;;;;;;3.90;1.27;;;;;;;-146.25;100.00;52670.31;2079535;28;31523;-71
2023/12/28 01:22:54;;;;;;;4.07;1.05;;;;;;;-146.25;100.00;52656.13;2080794;28;20961;-71
2023/12/28 01:23:56;;;;;;;2.35;1.00;;;;;;;-146.25;100.00;52656.13;2088514;28;20172;-70
2023/12/28 01:24:58;;;;;;;2.42;1.10;;;;;;;-146.25;100.00;52672.34;2089203;28;20038;-70
2023/12/28 01:26:00;;;;;;;4.85;1.35;;;;;;;-146.25;100.00;52631.78;2088536;28;31082;-71
2023/12/28 01:27:02;;;;;;;2.45;1.08;;;;;;;-146.25;100.00;52648.00;2089401;28;20903;-70
2023/12/28 01:28:04;;;;;;;3.35;1.17;;;;;;;-146.25;100.00;52682.47;2088677;28;22358;-70
2023/12/28 01:29:06;;;;;;;3.97;1.13;;;;;;;-146.25;100.00;52627.75;2088208;28;32409;-70
2023/12/28 01:30:08;;;;;;;3.25;1.05;;;;;;;-146.25;100.00;52631.78;2080123;28;20057;-70
2023/12/28 01:31:10;;;;;;;2.25;1.00;;;;;;;-146.25;100.00;52666.25;2080231;28;31958;-70
2023/12/28 01:32:12;;;;;;;2.97;1.20;;;;;;;-146.25;100.00;52648.00;2088629;28;24352;-70
2023/12/28 01:33:16;;;;;;;2.40;1.17;;;;;;;-146.25;100.00;52660.19;2088981;28;23675;-71
2023/12/28 01:34:18;;;;;;;2.40;1.20;;;;;;;-146.25;100.00;52656.13;2087952;28;25982;-70
2023/12/28 01:35:20;;;;;;;2.67;1.30;;;;;;;-146.25;100.00;52650.03;2088395;28;20052;-71
2023/12/28 01:36:22;;;;;;;2.60;1.17;;;;;;;-146.25;100.00;52603.41;2088620;28;33036;-70
2023/12/28 01:37:24;;;;;;;4.30;1.20;;;;;;;-146.25;100.00;52637.88;2088622;28;29497;-70
2023/12/28 01:38:29;;;;;;;5.63;1.35;;;;;;;-146.25;100.00;52660.19;2087647;28;27108;-71
2023/12/28 01:39:31;;;;;;;2.78;1.40;;;;;;;-146.25;100.00;52650.03;2080096;28;20933;-70
2023/12/28 01:40:36;;;;;;;3.28;1.27;;;;;;;-146.25;100.00;52654.09;2072126;28;20132;-71
2023/12/28 01:41:40;;;;;;;2.72;1.40;;;;;;;-146.25;100.00;52603.41;2071599;28;24835;-70
2023/12/28 01:42:41;;;;;;;2.10;1.20;;;;;;;-146.25;100.00;52605.44;2072794;28;28572;-71
2023/12/28 01:43:43;;;;;;;2.33;1.38;;;;;;;-146.25;100.00;52615.56;2080901;28;25128;-70
2023/12/28 01:44:45;;;;;;;2.28;1.50;;;;;;;-146.25;100.00;52660.19;2080684;28;24955;-71
2023/12/28 01:45:47;;;;;;;4.05;1.20;;;;;;;-146.25;100.00;52639.91;2080979;28;20049;-70
2023/12/28 01:46:50;;;;;;;3.63;1.42;;;;;;;-146.25;100.00;52627.75;2080598;28;20043;-71
2023/12/28 01:47:54;;;;;;;3.33;1.38;;;;;;;-146.25;100.00;52635.84;2080269;28;24132;-71
2023/12/28 01:48:56;;;;;;;2.30;1.50;;;;;;;-146.25;100.00;52678.44;2071721;28;24158;-70
2023/12/28 01:50:02;;;;;;;3.60;1.58;;;;;;;-146.25;100.00;52660.19;2071971;28;26643;-70
2023/12/28 01:51:04;;;;;;;3.05;1.30;;;;;;;-146.25;100.00;52633.81;2072002;28;20043;-71
2023/12/28 01:52:07;;;;;;;4.00;1.15;;;;;;;-146.25;100.00;52643.97;2064306;28;27864;-70
2023/12/28 01:53:10;;;;;;;3.38;1.35;;;;;;;-146.25;100.00;52648.00;2063850;28;20174;-71
2023/12/28 01:54:11;;;;;;;3.45;1.25;;;;;;;-146.25;100.00;52660.19;2072012;28;27721;-70
2023/12/28 01:55:14;;;;;;;3.20;1.10;;;;;;;-146.25;100.00;52676.41;2080211;28;28108;-71
2023/12/28 01:56:18;;;;;;;2.58;1.50;;;;;;;-146.25;100.00;52662.22;2080695;28;20080;-71
2023/12/28 01:57:22;;;;;;;3.30;1.63;;;;;;;-146.25;100.00;52597.31;2063759;28;20106;-71
2023/12/28 01:58:28;;;;;;;4.10;1.40;;;;;;;-146.25;100.00;52656.13;2073175;28;20042;-71
2023/12/28 01:59:31;;;;;;;3.72;1.30;;;;;;;-146.25;100.00;52643.97;2088020;28;24111;-71
2023/12/28 02:00:36;;;;;;;1.77;1.30;;;;;;;-146.25;100.00;52645.97;2071749;28;20045;-71
2023/12/28 02:01:38;;;;;;;3.10;1.80;;;;;;;-146.25;100.00;52645.97;2073034;28;24031;-70
2023/12/28 02:02:41;;;;;;;2.75;1.67;;;;;;;-146.25;100.00;52710.88;2079699;28;20878;-71
2023/12/28 02:03:44;;;;;;;1.60;1.35;;;;;;;-146.25;100.00;52656.13;2079937;28;22524;-70
2023/12/28 02:04:46;;;;;;;5.18;1.42;;;;;;;-146.25;100.00;52650.03;2072132;28;20042;-69
2023/12/28 02:05:48;;;;;;;6.55;1.45;;;;;;;-146.25;100.00;52635.84;2072040;28;30100;-71
2023/12/28 02:06:50;;;;;;;2.85;1.35;;;;;;;-146.25;100.00;52627.75;2080376;28;20164;-70
2023/12/28 02:07:52;;;;;;;4.38;1.38;;;;;;;-146.25;100.00;52643.97;2080166;28;24636;-71
2023/12/28 02:08:53;;;;;;;4.65;1.45;;;;;;;-146.25;100.00;52652.06;2079665;28;33643;-71
2023/12/28 02:09:55;;;;;;;3.55;1.40;;;;;;;-146.25;100.00;52641.94;2088874;28;20209;-71
2023/12/28 02:10:59;;;;;;;2.22;1.48;;;;;;;-146.25;100.00;52643.97;2088860;28;24087;-71
2023/12/28 02:12:02;;;;;;;3.58;1.48;;;;;;;-146.25;100.00;52656.13;2088859;28;20045;-71
2023/12/28 02:13:08;;;;;;;2.75;1.60;;;;;;;-146.25;100.00;52662.22;2088756;28;20049;-70
2023/12/28 02:14:11;;;;;;;3.45;1.80;;;;;;;-146.25;100.00;52631.78;2088641;28;20147;-71
2023/12/28 02:15:13;;;;;;;4.35;1.40;;;;;;;-146.25;100.00;52662.22;2087916;28;20180;-71
2023/12/28 02:16:39;;;;;;;4.53;1.33;;;;;;;-146.25;100.00;52609.50;2079832;28;20045;-71
2023/12/28 02:18:05;;;;;;;4.43;1.60;;;;;;;-146.25;100.00;52633.81;2073987;28;20144;-71
2023/12/28 02:19:46;;;;;;;4.90;1.35;;;;;;;-146.25;100.00;52607.47;2075331;28;20077;-70
2023/12/28 02:20:49;;;;;;;3.63;1.50;;;;;;;-146.25;100.00;52613.53;2069186;28;26776;-71
2023/12/28 02:21:52;;;;;;;3.88;1.42;;;;;;;-146.25;100.00;52652.06;2078885;28;36367;-70
2023/12/28 02:22:54;;;;;;;2.97;1.42;;;;;;;-146.25;100.00;52656.13;2071559;28;29346;-71
2023/12/28 02:23:55;;;;;;;4.82;1.60;;;;;;;-146.25;100.00;52660.19;2079142;28;32125;-70
2023/12/28 02:25:13;;;;;;;2.65;1.50;;;;;;;-146.25;100.00;52648.00;2079569;28;31673;-70
2023/12/28 02:26:18;;;;;;;3.10;1.33;;;;;;;-146.25;100.00;52658.16;2081937;28;26434;-71
2023/12/28 02:27:21;;;;;;;3.50;1.42;;;;;;;-146.25;100.00;52648.00;2079313;28;20624;-70
2023/12/28 02:28:23;;;;;;;2.80;1.65;;;;;;;-146.25;100.00;52629.75;2071149;28;20132;-71
2023/12/28 02:29:28;;;;;;;2.83;1.48;;;;;;;-146.25;100.00;52599.34;2071734;28;20222;-70
2023/12/28 02:30:30;;;;;;;5.63;1.65;;;;;;;-146.25;100.00;52660.19;2071196;28;24416;-70
2023/12/28 02:31:58;;;;;;;5.55;1.13;;;;;;;-146.25;100.00;52629.75;2072257;28;33840;-70
2023/12/28 02:33:08;;;;;;;4.47;1.63;;;;;;;-146.25;100.00;52654.09;2071148;28;26629;-70
2023/12/28 02:34:19;;;;;;;3.00;1.45;;;;;;;-146.25;100.00;52652.06;2075086;28;27392;-70
2023/12/28 02:35:27;;;;;;;;;;;;;;;-146.25;100.00;52615.56;2080281;28;20914;-71
2023/12/28 02:36:28;;;;;;;2.63;1.52;;;;;;;-146.25;100.00;52643.97;2078340;28;36371;-71
2023/12/28 02:37:34;;;;;;;4.30;1.55;;;;;;;-146.25;100.00;52619.63;2071432;28;32960;-71
2023/12/28 02:38:38;;;;;;;3.38;1.40;;;;;;;-146.25;100.00;52643.97;2070513;28;31683;-71
2023/12/28 02:39:41;;;;;;;3.42;1.25;;;;;;;-146.25;100.00;52641.94;2064279;28;30404;-70
2023/12/28 02:40:45;;;;;;;4.00;1.77;;;;;;;-146.25;100.00;52641.94;2071161;28;28511;-70
2023/12/28 02:41:47;;;;;;;2.90;1.60;;;;;;;-146.25;100.00;52680.47;2071356;28;35809;-71
2023/12/28 02:42:49;;;;;;;6.72;1.52;;;;;;;-146.25;100.00;52625.72;2071847;28;20042;-71
2023/12/28 02:43:51;;;;;;;2.75;1.40;;;;;;;-146.25;100.00;52623.69;2071434;28;20049;-70
2023/12/28 02:44:53;;;;;;;5.18;1.48;;;;;;;-146.25;100.00;52635.84;2071380;28;20034;-70
2023/12/28 02:45:55;;;;;;;4.20;1.85;;;;;;;-146.25;100.00;52625.72;2072116;28;20035;-71
2023/12/28 02:46:57;;;;;;;5.13;1.50;;;;;;;-146.25;100.00;52645.97;2071217;28;27044;-70
2023/12/28 02:48:00;;;;;;;4.03;1.45;;;;;;;-146.25;100.00;52668.28;2071985;28;21065;-70
2023/12/28 02:49:02;;;;;;;3.33;1.65;;;;;;;-146.25;100.00;52666.25;2079492;28;20049;-70
2023/12/28 02:50:06;;;;;;;2.47;1.38;;;;;;;-146.25;100.00;52639.91;2071736;28;27221;-71
2023/12/28 02:51:10;;;;;;;3.08;1.50;;;;;;;-146.25;100.00;52631.78;2071923;28;20035;-70
2023/12/28 02:52:15;;;;;;;2.83;1.40;;;;;;;-146.25;100.00;52643.97;2079666;28;32946;-71
2023/12/28 02:53:17;;;;;;;3.70;1.48;;;;;;;-146.25;100.00;52633.81;2070841;28;24188;-70
2023/12/28 02:54:21;;;;;;;2.70;1.25;;;;;;;-146.25;100.00;52648.00;2071758;28;34581;-70
2023/12/28 02:55:23;;;;;;;5.75;1.13;;;;;;;-146.25;100.00;52601.38;2079711;28;31838;-71
2023/12/28 02:56:25;;;;;;;3.80;1.70;;;;;;;-146.25;100.00;52641.94;2087876;28;20092;-71
2023/12/28 02:57:27;;;;;;;4.78;1.60;;;;;;;-146.25;100.00;52702.75;2087307;28;28110;-70
2023/12/28 02:58:32;;;;;;;3.97;1.75;;;;;;;-146.25;100.00;52623.69;2071677;28;20035;-70
2023/12/28 02:59:36;;;;;;;2.85;1.30;;;;;;;-146.25;100.00;52672.34;2071855;28;20038;-71
2023/12/28 03:00:37;;;;;;;3.38;1.65;;;;;;;-146.25;100.00;52631.78;2087721;28;30057;-70
2023/12/28 03:01:39;;;;;;;4.75;1.85;;;;;;;-146.25;100.00;52654.09;2087575;28;20735;-70
2023/12/28 03:02:41;;;;;;;3.88;1.50;;;;;;;-146.25;100.00;52639.91;2079698;28;28882;-71
2023/12/28 03:03:45;;;;;;;3.88;1.48;;;;;;;-146.25;100.00;52607.47;2071203;28;20050;-71
2023/12/28 03:04:47;;;;;;;5.50;1.67;;;;;;;-146.25;100.00;52672.34;2063593;28;20039;-70
2023/12/28 03:05:49;;;;;;;4.07;1.83;;;;;;;-146.25;100.00;52623.69;2079388;28;29826;-70
2023/12/28 03:06:51;;;;;;;2.72;1.70;;;;;;;-146.25;100.00;52645.97;2087143;28;29506;-71
2023/12/28 03:07:55;;;;;;;3.88;1.50;;;;;;;-146.25;100.00;52619.63;2079055;28;28544;-71
2023/12/28 03:08:57;;;;;;;3.60;1.90;;;;;;;-146.25;100.00;52627.75;2080249;28;24399;-70
2023/12/28 03:09:59;;;;;;;4.25;1.85;;;;;;;-146.25;100.00;52619.63;2080065;28;20041;-70
2023/12/28 03:11:01;;;;;;;6.28;1.73;;;;;;;-146.25;100.00;52664.22;2087854;28;20148;-70
2023/12/28 03:12:06;;;;;;;3.47;1.42;;;;;;;-146.25;100.00;52631.78;2086781;28;20124;-70
2023/12/28 03:13:08;;;;;;;5.97;1.52;;;;;;;-146.25;100.00;52684.50;2080065;28;30424;-71
2023/12/28 03:14:10;;;;;;;4.75;1.70;;;;;;;-146.25;100.00;52637.88;2079659;28;35106;-70
2023/12/28 03:15:15;;;;;;;4.60;1.52;;;;;;;-146.25;100.00;52654.09;2080576;28;20799;-71
2023/12/28 03:16:17;;;;;;;3.55;1.73;;;;;;;-146.25;100.00;52658.16;2081945;28;20163;-69
2023/12/28 03:17:19;;;;;;;4.07;1.33;;;;;;;-146.25;100.00;52648.00;2079346;28;28788;-70
2023/12/28 03:18:21;;;;;;;3.97;1.80;;;;;;;-146.25;100.00;52654.09;2062910;28;20098;-70
2023/12/28 03:19:23;;;;;;;4.03;1.60;;;;;;;-146.25;100.00;52639.91;2071776;28;20884;-70
2023/12/28 03:20:27;;;;;;;2.55;1.30;;;;;;;-146.25;100.00;52639.91;2079437;28;20173;-70
2023/12/28 03:21:28;;;;;;;3.90;1.90;;;;;;;-146.25;100.00;52648.00;2071391;28;28556;-71
2023/12/28 03:22:31;;;;;;;5.32;1.70;;;;;;;-146.25;100.00;52658.16;2079598;28;20973;-71
2023/12/28 03:23:33;;;;;;;5.70;1.77;;;;;;;-146.25;100.00;52617.59;2088489;28;24876;-70
2023/12/28 03:24:37;;;;;;;7.85;1.88;;;;;;;-146.25;100.00;52656.13;2078973;28;33109;-71
2023/12/28 03:25:39;;;;;;;4.53;1.42;;;;;;;-146.25;100.00;52637.88;2079987;28;20034;-70
2023/12/28 03:26:41;;;;;;;4.63;1.77;;;;;;;-146.25;100.00;52652.06;2079261;28;20042;-70
2023/12/28 03:27:43;;;;;;;4.07;1.73;;;;;;;-146.25;100.00;52648.00;2079357;28;33748;-70
2023/12/28 03:28:46;;;;;;;2.55;1.45;;;;;;;-146.25;100.00;52654.09;2088148;28;20036;-70
2023/12/28 03:29:50;;;;;;;5.10;1.60;;;;;;;-146.25;100.00;52643.97;2088463;28;20046;-71
2023/12/28 03:30:52;;;;;;;4.65;1.60;;;;;;;-146.25;100.00;52627.75;2079309;28;20102;-70
2023/12/28 03:31:54;;;;;;;3.58;1.67;;;;;;;-146.25;100.00;52652.06;2079317;28;31573;-71
2023/12/28 03:32:57;;;;;;;3.78;1.52;;;;;;;-146.25;100.00;52656.13;2087234;28;20112;-71
2023/12/28 03:33:59;;;;;;;4.97;1.50;;;;;;;-146.25;100.00;52629.75;2087764;28;20160;-70
2023/12/28 03:35:02;;;;;;;3.33;1.58;;;;;;;-146.25;100.00;52670.31;2087574;28;32206;-71
2023/12/28 03:36:04;;;;;;;6.00;1.52;;;;;;;-146.25;100.00;52635.84;2088767;28;20108;-71
2023/12/28 03:37:09;;;;;;;4.05;1.73;;;;;;;-146.25;100.00;52627.75;2087430;28;35078;-71
2023/12/28 03:38:11;;;;;;;7.15;1.90;;;;;;;-146.25;100.00;52623.69;2087909;28;32859;-70
2023/12/28 03:39:14;;;;;;;3.67;1.40;;;;;;;-146.25;100.00;52645.97;2089377;28;20954;-70
2023/12/28 03:40:16;;;;;;;5.10;1.90;;;;;;;-146.25;100.00;52621.66;2089605;28;31859;-70
2023/12/28 03:41:21;;;;;;;3.50;1.90;;;;;;;-146.25;100.00;52635.84;2089577;28;20042;-71
2023/12/28 03:42:24;;;;;;;5.82;1.77;;;;;;;-146.25;100.00;52619.63;2089467;28;20045;-70
2023/12/28 03:43:26;;;;;;;4.93;1.40;;;;;;;-146.25;100.00;52650.03;2088712;28;29249;-70
2023/12/28 03:44:27;;;;;;;4.18;1.33;;;;;;;-146.25;100.00;52631.78;2090221;28;20045;-71
2023/12/28 03:45:29;;;;;;;4.65;1.33;;;;;;;-146.25;100.00;52635.84;2090425;28;20975;-70
2023/12/28 03:46:31;;;;;;;4.05;1.65;;;;;;;-146.25;100.00;52631.78;2089939;28;20042;-70
2023/12/28 03:47:35;;;;;;;3.95;1.70;;;;;;;-146.25;100.00;52660.19;2088842;28;36536;-71
2023/12/28 03:48:37;;;;;;;4.35;1.92;;;;;;;-146.25;100.00;52656.13;2088726;28;35741;-71
2023/12/28 03:49:40;;;;;;;5.88;1.73;;;;;;;-146.25;100.00;52605.44;2080083;28;20038;-70
2023/12/28 03:50:42;;;;;;;4.10;1.80;;;;;;;-146.25;100.00;52652.06;2080299;28;27954;-70
2023/12/28 03:51:47;;;;;;;4.20;1.83;;;;;;;-146.25;100.00;52639.91;2080426;28;20078;-70
2023/12/28 03:52:49;;;;;;;5.65;2.08;;;;;;;-146.25;100.00;52660.19;2073445;28;21862;-70
2023/12/28 03:53:52;;;;;;;3.28;1.45;;;;;;;-146.25;100.00;52639.91;2073108;28;20051;-71
2023/12/28 03:54:53;;;;;;;5.07;1.88;;;;;;;-146.25;100.00;52631.78;2080942;28;20038;-70
2023/12/28 03:55:55;;;;;;;5.85;2.00;;;;;;;-146.25;100.00;52678.44;2089298;28;26516;-71
2023/12/28 03:56:57;;;;;;;3.63;1.75;;;;;;;-146.25;100.00;52654.09;2089216;28;21156;-70
2023/12/28 03:58:01;;;;;;;5.65;1.80;;;;;;;-146.25;100.00;52635.84;2088508;28;28758;-70
2023/12/28 03:59:04;;;;;;;5.10;1.85;;;;;;;-146.25;100.00;52629.75;2089945;28;20088;-71
2023/12/28 04:00:08;;;;;;;3.17;1.60;;;;;;;-146.25;100.00;52648.00;2089810;28;20091;-71
2023/12/28 04:01:13;;;;;;;3.17;1.70;;;;;;;-146.25;100.00;52678.44;2090507;28;20895;-70
2023/12/28 04:02:15;;;;;;;5.00;2.00;;;;;;;-146.25;100.00;52654.09;2089482;28;26644;-70
2023/12/28 04:03:16;;;;;;;4.88;1.52;;;;;;;-146.25;100.00;52627.75;2089302;28;26095;-70
2023/12/28 04:04:18;;;;;;;3.35;1.73;;;;;;;-146.25;100.00;52593.25;2080182;28;26891;-70
2023/12/28 04:05:21;;;;;;;7.43;1.90;;;;;;;-146.25;100.00;52615.56;2072235;28;30262;-70
2023/12/28 04:06:23;;;;;;;5.50;1.70;;;;;;;-146.25;100.00;52674.38;2080634;28;32747;-70
2023/12/28 04:07:24;;;;;;;3.95;1.67;;;;;;;-146.25;100.00;52635.84;2089820;28;20040;-70
2023/12/28 04:08:26;;;;;;;4.65;1.38;;;;;;;-146.25;100.00;52631.78;2089563;28;20048;-70
2023/12/28 04:09:29;;;;;;;5.80;1.40;;;;;;;-146.25;100.00;52635.84;2088822;28;20041;-70
2023/12/28 04:10:32;;;;;;;3.88;1.63;;;;;;;-146.25;100.00;52637.88;2088658;28;29593;-71
2023/12/28 04:11:34;;;;;;;4.40;1.70;;;;;;;-146.25;100.00;52627.75;2089112;28;34126;-70
2023/12/28 04:12:37;;;;;;;5.57;1.75;;;;;;;-146.25;100.00;52670.31;2080666;28;20049;-70
2023/12/28 04:13:39;;;;;;;5.95;1.80;;;;;;;-146.25;100.00;52633.81;2072348;28;27580;-70
2023/12/28 04:14:41;;;;;;;4.25;1.60;;;;;;;-146.25;100.00;52658.16;2072054;28;21030;-70
2023/12/28 04:15:43;;;;;;;6.18;1.58;;;;;;;-146.25;100.00;52676.41;2072462;28;26471;-70
2023/12/28 04:16:45;;;;;;;5.05;1.40;;;;;;;-146.25;100.00;52668.28;2071968;28;28900;-70
2023/12/28 04:17:47;;;;;;;4.07;1.63;;;;;;;-146.25;100.00;52678.44;2080409;28;20787;-70
2023/12/28 04:18:49;;;;;;;5.60;2.05;;;;;;;-146.25;100.00;52627.75;2088151;28;35445;-70
2023/12/28 04:19:50;;;;;;;5.43;1.95;;;;;;;-146.25;100.00;52674.38;2080481;28;20041;-70
2023/12/28 04:20:55;;;;;;;3.20;1.77;;;;;;;-146.25;100.00;52635.84;2072174;28;30556;-70
2023/12/28 04:21:57;;;;;;;3.25;1.38;;;;;;;-146.25;100.00;52672.34;2080493;28;28461;-71
2023/12/28 04:22:59;;;;;;;4.70;1.85;;;;;;;-146.25;100.00;52643.97;2089624;28;20835;-70
2023/12/28 04:24:01;;;;;;;5.28;1.42;;;;;;;-146.25;100.00;52656.13;2088703;28;29506;-70
2023/12/28 04:25:05;;;;;;;7.88;1.73;;;;;;;-146.25;100.00;52601.38;2080409;28;20864;-71
2023/12/28 04:26:10;;;;;;;4.18;1.58;;;;;;;-146.25;100.00;52645.97;2080862;28;20172;-70
2023/12/28 04:27:12;;;;;;;3.63;1.58;;;;;;;-146.25;100.00;52633.81;2088113;28;34914;-70
2023/12/28 04:28:14;;;;;;;5.95;1.90;;;;;;;-146.25;100.00;52631.78;2088708;28;20046;-70
2023/12/28 04:29:17;;;;;;;5.78;1.77;;;;;;;-146.25;100.00;52619.63;2088146;28;36333;-71
2023/12/28 04:30:19;;;;;;;5.10;1.83;;;;;;;-146.25;100.00;52648.00;2089940;28;20049;-70
2023/12/28 04:31:21;;;;;;;5.03;1.70;;;;;;;-146.25;100.00;52648.00;2088116;28;25708;-71
2023/12/28 04:32:23;;;;;;;4.68;1.77;;;;;;;-146.25;100.00;52666.25;2071598;28;30675;-69
2023/12/28 04:33:25;;;;;;;4.28;1.40;;;;;;;-146.25;100.00;52609.50;2072995;28;20848;-70
2023/12/28 04:34:27;;;;;;;3.53;1.65;;;;;;;-146.25;100.00;52641.94;2080881;28;20041;-70
2023/12/28 04:35:29;;;;;;;3.65;1.38;;;;;;;-146.25;100.00;52668.28;2080489;28;20038;-70
2023/12/28 04:36:38;;;;;;;6.55;1.80;;;;;;;-146.25;100.00;52639.91;2080329;28;20804;-70
2023/12/28 04:37:40;;;;;;;8.50;1.92;;;;;;;-146.25;100.00;52637.88;2073409;28;21067;-70
2023/12/28 04:38:42;;;;;;;5.75;1.55;;;;;;;-146.25;100.00;52656.13;2072361;28;20117;-70
2023/12/28 04:39:46;;;;;;;4.78;1.40;;;;;;;-146.25;100.00;52668.28;2072383;28;20176;-71
2023/12/28 04:40:48;;;;;;;5.82;1.30;;;;;;;-146.25;100.00;52635.84;2072811;28;20827;-70
2023/12/28 04:41:49;;;;;;;5.18;1.38;;;;;;;-146.25;100.00;52648.00;2072064;28;20809;-70
2023/12/28 04:42:51;;;;;;;6.75;1.50;;;;;;;-146.25;100.00;52652.06;2071771;28;23046;-70
2023/12/28 04:43:53;;;;;;;5.05;1.40;;;;;;;-146.25;100.00;52623.69;2080813;28;20046;-70
2023/12/28 04:44:57;;;;;;;4.03;1.60;;;;;;;-146.25;100.00;52633.81;2088602;28;20041;-70
2023/12/28 04:46:06;;;;;;;5.05;1.85;;;;;;;-146.25;100.00;52660.19;2080510;28;25398;-70
2023/12/28 04:47:07;;;;;;;5.20;1.60;;;;;;;-146.25;100.00;52660.19;2081769;28;25482;-70